Saint-Denis/Gillot, Reunion
Current Conditions -  °F | °C
As of 5:00 AM on Wednesday 28 Jan 2015 (Local Time) from FMEE Reporting Station
Few Clouds Few Clouds  
Wind Chill: 77°   Ceiling: Unl
Heat Index: 79°   Visibility: 6mi
Dew Point: 68°   Wind: 14mph
Humidity: 74%   Direction: 120°ESE
Pressure: 29.85"   Gusts: NA
Location:  20.89°S, 55.51°E
Report Text: FMEE 280100Z AUTO 12012KT 9999 FEW066 25/20 Q1011
Loading
Personal Weather Stations






























Interactive Weather Map New forecast layout! Learn more

10-Day Weather Forecast

Advertisements
Track Severe Weather on mobile